Time;durP1;ratioP1;P1;durP2;ratioP2;P2;SDS_P1;SDS_P2;PMS_P1;PMS_P2;Temp;Humidity;BMP_temperature;BMP_pressure;BME280_temperature;BME280_humidity;BME280_pressure;Samples;Min_cycle;Max_cycle;Signal;HPM_P1;HPM_P2
2021/05/04 00:01:35;;;;;;;6.53;5.53;;;;;;;4.71;78.43;100489.47;5092619;28;20227;-74
2021/05/04 00:04:00;;;;;;;6.77;6.00;;;;;;;4.68;78.66;100485.16;5075728;28;20205;-74
2021/05/04 00:06:25;;;;;;;6.80;5.87;;;;;;;4.68;78.77;100479.84;5093810;28;20665;-74
2021/05/04 00:08:51;;;;;;;8.87;6.10;;;;;;;4.76;78.36;100470.78;5093846;28;20665;-74
2021/05/04 00:11:16;;;;;;;7.37;5.80;;;;;;;4.75;78.38;100472.56;5092414;28;20174;-74
2021/05/04 00:13:42;;;;;;;6.67;5.90;;;;;;;4.68;78.76;100471.94;5092371;28;20194;-74
2021/05/04 00:16:07;;;;;;;6.60;5.67;;;;;;;4.66;77.86;100460.53;5092658;28;20174;-74
2021/05/04 00:18:32;;;;;;;6.33;5.67;;;;;;;4.78;78.32;100461.03;5093635;28;20185;-74
2021/05/04 00:20:58;;;;;;;6.33;5.67;;;;;;;4.78;77.68;100453.09;5092681;28;20626;-74
2021/05/04 00:23:23;;;;;;;6.47;5.20;;;;;;;4.91;77.15;100449.97;5093577;28;20198;-74
2021/05/04 00:25:48;;;;;;;6.53;5.83;;;;;;;4.79;77.20;100447.75;5093392;28;20198;-74
2021/05/04 00:28:14;;;;;;;8.03;6.03;;;;;;;4.77;77.05;100433.72;5092485;28;20173;-74
2021/05/04 00:30:39;;;;;;;8.53;6.00;;;;;;;4.85;76.16;100433.47;5092842;28;20198;-73
2021/05/04 00:33:04;;;;;;;7.37;6.07;;;;;;;4.87;76.17;100436.94;5092126;28;20720;-74
2021/05/04 00:35:30;;;;;;;7.53;5.70;;;;;;;4.92;75.96;100419.09;5092172;28;20178;-74
2021/05/04 00:37:55;;;;;;;5.97;5.37;;;;;;;4.84;76.43;100421.16;5092650;28;20174;-74
2021/05/04 00:40:21;;;;;;;7.00;5.80;;;;;;;4.82;76.13;100412.41;5092338;28;20181;-74
2021/05/04 00:42:46;;;;;;;6.57;5.87;;;;;;;4.78;76.29;100406.34;5092134;28;20250;-74
2021/05/04 00:45:12;;;;;;;6.97;5.30;;;;;;;4.82;76.25;100401.81;5093701;28;20316;-74
2021/05/04 00:47:37;;;;;;;6.93;5.90;;;;;;;4.73;76.94;100397.72;5091912;28;20530;-73
2021/05/04 00:50:03;;;;;;;6.43;5.53;;;;;;;4.95;75.91;100384.63;5092201;28;20178;-75
2021/05/04 00:52:29;;;;;;;8.90;5.50;;;;;;;4.95;76.39;100380.19;5076457;28;20309;-76
2021/05/04 00:54:56;;;;;;;5.93;5.33;;;;;;;4.82;76.06;100372.72;5094430;28;20719;-74
2021/05/04 00:57:22;;;;;;;5.40;4.90;;;;;;;4.95;76.09;100364.31;5093238;28;20215;-74
2021/05/04 00:59:48;;;;;;;8.20;4.87;;;;;;;4.91;76.40;100364.50;5092642;28;20174;-74
2021/05/04 01:02:13;;;;;;;5.63;5.03;;;;;;;4.95;75.19;100352.88;5091914;28;20193;-73
2021/05/04 01:04:39;;;;;;;5.57;5.03;;;;;;;4.96;75.87;100349.31;5075181;28;20184;-74
2021/05/04 01:07:05;;;;;;;6.30;5.10;;;;;;;4.91;76.17;100349.47;5096211;28;20215;-75
2021/05/04 01:09:30;;;;;;;7.37;5.70;;;;;;;4.91;76.37;100348.63;5097592;28;20201;-74
2021/05/04 01:11:55;;;;;;;6.53;5.73;;;;;;;4.99;76.37;100342.13;5097497;28;20181;-75
2021/05/04 01:14:22;;;;;;;5.90;5.30;;;;;;;5.07;75.91;100333.03;5097278;28;20171;-74
2021/05/04 01:16:53;;;;;;;6.13;5.50;;;;;;;4.86;76.30;100324.13;5097469;28;20166;-76
2021/05/04 01:19:19;;;;;;;6.47;5.40;;;;;;;4.81;76.58;100323.41;5096208;28;20154;-74
2021/05/04 01:21:44;;;;;;;9.27;6.60;;;;;;;4.95;76.95;100315.84;5096177;28;20200;-74
2021/05/04 01:24:10;;;;;;;6.17;5.57;;;;;;;4.88;76.32;100306.44;5096334;28;20162;-74
2021/05/04 01:26:36;;;;;;;6.30;5.13;;;;;;;4.87;77.18;100299.41;5095822;28;20198;-74
2021/05/04 01:29:01;;;;;;;6.37;5.53;;;;;;;4.79;77.29;100296.16;5096594;28;20186;-75
2021/05/04 01:31:27;;;;;;;6.73;6.00;;;;;;;4.92;76.61;100293.03;5095918;28;20174;-75
2021/05/04 01:33:52;;;;;;;7.13;6.13;;;;;;;4.89;76.53;100287.00;5097147;28;20247;-75
2021/05/04 01:36:17;;;;;;;7.10;6.40;;;;;;;5.00;75.62;100268.94;5095758;28;20167;-74
2021/05/04 01:38:43;;;;;;;7.40;6.30;;;;;;;5.01;74.71;100268.88;5097107;28;20205;-75
2021/05/04 01:41:08;;;;;;;6.20;5.60;;;;;;;5.20;74.55;100263.72;5078883;28;20227;-75
2021/05/04 01:43:34;;;;;;;6.40;5.70;;;;;;;5.08;74.97;100258.91;5095694;28;20190;-75
2021/05/04 01:45:59;;;;;;;6.23;5.63;;;;;;;5.14;74.42;100253.34;5095458;28;20198;-76
2021/05/04 01:48:24;;;;;;;6.13;5.53;;;;;;;5.26;74.33;100246.75;5096978;28;20167;-75
2021/05/04 01:50:50;;;;;;;8.97;6.33;;;;;;;5.28;74.55;100240.47;5095441;28;20246;-75
2021/05/04 01:53:15;;;;;;;6.07;5.47;;;;;;;5.31;74.18;100234.19;5096581;28;20570;-75
2021/05/04 01:55:40;;;;;;;6.97;5.73;;;;;;;5.38;73.20;100226.84;5096655;28;20202;-75
2021/05/04 01:58:05;;;;;;;6.20;5.50;;;;;;;5.40;72.08;100223.22;5095558;28;20185;-75
2021/05/04 02:00:31;;;;;;;7.60;5.50;;;;;;;5.40;72.28;100219.69;5095124;28;20190;-75
2021/05/04 02:02:56;;;;;;;9.33;5.23;;;;;;;5.37;72.11;100219.84;5096672;28;20674;-75
2021/05/04 02:05:21;;;;;;;7.47;5.57;;;;;;;5.44;71.60;100216.00;5095368;28;20704;-75
2021/05/04 02:07:47;;;;;;;7.47;5.17;;;;;;;5.48;71.94;100199.06;5096062;28;20177;-75
2021/05/04 02:10:12;;;;;;;7.20;5.30;;;;;;;5.44;71.60;100189.53;5078119;28;20545;-75
2021/05/04 02:12:41;;;;;;;5.27;4.77;;;;;;;5.46;71.65;100187.69;5096475;28;20212;-75
2021/05/04 02:15:07;;;;;;;5.93;5.33;;;;;;;5.44;72.52;100186.88;5095027;28;20166;-75
2021/05/04 02:17:33;;;;;;;6.10;5.17;;;;;;;5.47;71.34;100174.38;5093504;28;20174;-76
2021/05/04 02:19:58;;;;;;;6.13;4.83;;;;;;;5.53;71.63;100152.94;5095451;28;20189;-75
2021/05/04 02:22:23;;;;;;;7.57;4.90;;;;;;;5.60;70.49;100154.44;5094646;28;20681;-75
2021/05/04 02:24:49;;;;;;;5.93;5.33;;;;;;;5.52;71.55;100156.50;5077849;28;20646;-75
2021/05/04 02:27:14;;;;;;;5.93;5.27;;;;;;;5.60;70.78;100137.69;5077832;28;20181;-76
2021/05/04 02:29:40;;;;;;;6.40;4.90;;;;;;;5.52;70.43;100139.78;5096040;28;20166;-75
2021/05/04 02:32:05;;;;;;;6.20;5.00;;;;;;;5.53;70.95;100129.13;5077717;28;20194;-75
2021/05/04 02:34:30;;;;;;;7.33;4.67;;;;;;;5.48;70.39;100122.31;5077819;28;20167;-76
2021/05/04 02:36:55;;;;;;;6.73;4.60;;;;;;;5.51;71.08;100120.38;5094601;28;20169;-75
2021/05/04 02:39:21;;;;;;;6.20;5.00;;;;;;;5.47;71.10;100125.88;5095653;28;20515;-75
2021/05/04 02:41:46;;;;;;;5.47;4.30;;;;;;;5.53;70.36;100107.94;5095662;28;20247;-75
2021/05/04 02:44:11;;;;;;;4.77;4.27;;;;;;;5.56;70.29;100105.16;5096005;28;20264;-75
2021/05/04 02:46:37;;;;;;;5.57;5.03;;;;;;;5.50;70.89;100093.97;5077784;28;20198;-75
2021/05/04 02:49:02;;;;;;;5.47;4.60;;;;;;;5.53;69.91;100078.81;5077445;28;20642;-75
2021/05/04 02:51:27;;;;;;;5.57;4.73;;;;;;;5.55;69.67;100081.41;5095890;28;20255;-75
2021/05/04 02:53:53;;;;;;;4.87;4.37;;;;;;;5.57;70.38;100076.91;5094156;28;20284;-75
2021/05/04 02:56:18;;;;;;;7.27;4.80;;;;;;;5.48;70.86;100072.03;5094367;28;20205;-75
2021/05/04 02:58:44;;;;;;;7.03;4.20;;;;;;;5.56;70.15;100064.59;5094394;28;20178;-75
2021/05/04 03:01:09;;;;;;;7.23;4.40;;;;;;;5.55;69.49;100044.34;5094068;28;20170;-74
2021/05/04 03:03:35;;;;;;;6.20;4.43;;;;;;;5.56;69.33;100046.06;5094092;28;20190;-74
2021/05/04 03:06:01;;;;;;;5.80;4.23;;;;;;;5.56;68.74;100033.69;5095161;28;20190;-74
2021/05/04 03:08:26;;;;;;;6.73;3.73;;;;;;;5.56;69.23;100019.59;5076931;28;20269;-74
2021/05/04 03:10:52;;;;;;;5.27;3.97;;;;;;;5.50;69.24;100010.16;5095305;28;20185;-75
2021/05/04 03:13:24;;;;;;;5.63;3.90;;;;;;;5.65;68.70;100003.31;5094974;28;20565;-74
2021/05/04 03:15:50;;;;;;;7.73;4.07;;;;;;;5.67;67.60;100000.59;5093815;28;20170;-73
2021/05/04 03:18:15;;;;;;;6.07;4.47;;;;;;;5.63;68.44;99984.84;5093765;28;20166;-74
2021/05/04 03:20:40;;;;;;;5.77;4.23;;;;;;;5.64;68.37;99970.69;5093644;28;20174;-74
2021/05/04 03:23:06;;;;;;;6.00;3.73;;;;;;;5.65;67.91;99968.91;5076907;28;20190;-74
2021/05/04 03:25:31;;;;;;;6.13;3.43;;;;;;;5.58;67.92;99951.59;5093896;28;20199;-73
2021/05/04 03:27:58;;;;;;;7.00;4.10;;;;;;;5.60;67.74;99960.31;5094250;28;20538;-74
2021/05/04 03:30:24;;;;;;;4.60;3.60;;;;;;;5.67;67.31;99958.25;5093199;28;20549;-74
2021/05/04 03:32:50;;;;;;;4.40;4.00;;;;;;;5.59;67.40;99953.31;5076375;28;20282;-73
2021/05/04 03:35:15;;;;;;;5.37;4.20;;;;;;;5.63;67.92;99939.00;5093565;28;20166;-73
2021/05/04 03:37:41;;;;;;;8.73;4.30;;;;;;;5.55;67.91;99941.09;5094634;28;20538;-74
2021/05/04 03:40:06;;;;;;;5.73;4.40;;;;;;;5.51;67.29;99926.31;5094469;28;20174;-74
2021/05/04 03:42:32;;;;;;;7.40;4.20;;;;;;;5.53;67.92;99925.31;5094262;28;20199;-74
2021/05/04 03:44:57;;;;;;;5.80;4.30;;;;;;;5.48;67.27;99913.22;5094261;28;20201;-75
2021/05/04 03:47:22;;;;;;;5.60;4.00;;;;;;;5.46;67.77;99923.88;5076390;28;20171;-74
2021/05/04 03:49:48;;;;;;;7.47;4.70;;;;;;;5.53;67.61;99919.16;5094449;28;20542;-74
2021/05/04 03:52:13;;;;;;;5.80;4.63;;;;;;;5.51;67.88;99895.41;5095752;28;20267;-74
2021/05/04 03:54:38;;;;;;;7.07;4.40;;;;;;;5.59;67.95;99887.13;5092927;28;20210;-73
2021/05/04 03:57:04;;;;;;;5.57;4.27;;;;;;;5.54;67.42;99874.06;5093040;28;20542;-73
2021/05/04 03:59:29;;;;;;;5.60;3.90;;;;;;;5.52;67.64;99873.28;5093287;28;20186;-73
2021/05/04 04:01:54;;;;;;;8.13;4.20;;;;;;;5.56;67.16;99874.00;5094630;28;20193;-74
2021/05/04 04:04:19;;;;;;;5.47;4.43;;;;;;;5.59;66.51;99873.88;5093680;28;20219;-73
2021/05/04 04:06:45;;;;;;;6.83;4.60;;;;;;;5.69;66.89;99850.47;5092792;28;20565;-72
2021/05/04 04:09:10;;;;;;;6.30;4.13;;;;;;;5.68;66.70;99851.41;5094386;28;20185;-74
2021/05/04 04:11:37;;;;;;;6.27;4.30;;;;;;;5.80;66.33;99848.16;5094398;28;20182;-73
2021/05/04 04:14:02;;;;;;;4.57;4.07;;;;;;;5.83;65.85;99835.63;5093098;28;20261;-74
2021/05/04 04:16:28;;;;;;;5.43;3.60;;;;;;;5.76;66.00;99834.22;5093153;28;20208;-73
2021/05/04 04:18:53;;;;;;;5.83;4.17;;;;;;;5.81;65.92;99828.69;5095316;28;20189;-72
2021/05/04 04:21:18;;;;;;;5.07;3.73;;;;;;;5.77;65.68;99829.75;5092996;28;20178;-73
2021/05/04 04:23:44;;;;;;;10.50;4.13;;;;;;;5.78;65.85;99837.63;5092308;28;20251;-72
2021/05/04 04:26:09;;;;;;;4.77;3.80;;;;;;;5.91;65.27;99820.22;5092247;28;20198;-75
2021/05/04 04:28:34;;;;;;;5.40;3.90;;;;;;;5.94;64.88;99813.91;5092493;28;20176;-75
2021/05/04 04:31:00;;;;;;;4.60;3.80;;;;;;;6.01;64.74;99809.19;5092387;28;20216;-73
2021/05/04 04:33:26;;;;;;;5.33;3.80;;;;;;;6.09;63.64;99797.28;5092435;28;20603;-73
2021/05/04 04:35:52;;;;;;;5.53;4.10;;;;;;;6.16;63.98;99793.38;5096275;28;20162;-73
2021/05/04 04:38:17;;;;;;;5.57;3.97;;;;;;;6.19;63.41;99795.88;5087901;28;20170;-73
2021/05/04 04:40:44;;;;;;;5.17;4.20;;;;;;;6.13;64.01;99785.59;5102848;28;20199;-74
2021/05/04 04:43:09;;;;;;;5.13;3.93;;;;;;;6.18;63.45;99788.00;5092171;28;20198;-74
2021/05/04 04:45:34;;;;;;;5.00;3.93;;;;;;;6.09;63.76;99791.97;5092102;28;20202;-74
2021/05/04 04:47:59;;;;;;;5.80;3.97;;;;;;;6.17;64.17;99778.34;5092274;28;20166;-74
2021/05/04 04:50:25;;;;;;;3.87;3.23;;;;;;;6.11;64.45;99784.81;5093456;28;20170;-73
2021/05/04 04:52:51;;;;;;;6.53;3.80;;;;;;;6.13;64.09;99805.91;5094235;28;20267;-73
2021/05/04 04:55:16;;;;;;;5.73;4.00;;;;;;;6.20;64.33;99802.03;5075595;28;20626;-74
2021/05/04 04:57:41;;;;;;;5.50;3.90;;;;;;;6.27;64.02;99782.22;5092393;28;20181;-74
2021/05/04 05:00:07;;;;;;;5.70;3.90;;;;;;;6.30;63.70;99762.63;5092212;28;20235;-74
2021/05/04 05:02:32;;;;;;;5.27;3.87;;;;;;;6.33;63.63;99762.50;5091995;28;20201;-74
2021/05/04 05:04:58;;;;;;;4.20;3.80;;;;;;;6.31;63.00;99770.50;5092007;28;20657;-73
2021/05/04 05:07:23;;;;;;;5.53;3.67;;;;;;;6.47;62.62;99739.63;5074998;28;20227;-73
2021/05/04 05:09:48;;;;;;;4.80;4.07;;;;;;;6.44;62.87;99741.59;5094016;28;20186;-74
2021/05/04 05:12:14;;;;;;;5.53;3.63;;;;;;;6.50;62.32;99744.75;5093014;28;20669;-75
2021/05/04 05:14:40;;;;;;;6.37;3.67;;;;;;;6.54;62.61;99730.41;5093534;28;20542;-76
2021/05/04 05:17:06;;;;;;;5.33;3.70;;;;;;;6.58;62.07;99734.59;5092107;28;20178;-74
2021/05/04 05:19:31;;;;;;;5.23;3.53;;;;;;;6.72;61.63;99725.91;5093384;28;20181;-74
2021/05/04 05:21:57;;;;;;;6.07;3.60;;;;;;;6.64;62.03;99719.28;5091852;28;20202;-74
2021/05/04 05:24:22;;;;;;;4.73;3.20;;;;;;;6.76;62.33;99718.66;5093578;28;20174;-76
2021/05/04 05:26:48;;;;;;;5.63;3.20;;;;;;;6.70;62.53;99700.44;5092990;28;20197;-75
2021/05/04 05:29:14;;;;;;;5.93;3.77;;;;;;;6.71;62.49;99694.19;5093774;28;20185;-74
2021/05/04 05:31:39;;;;;;;4.57;3.50;;;;;;;6.78;62.15;99677.00;5094529;28;20179;-74
2021/05/04 05:34:05;;;;;;;5.50;3.90;;;;;;;6.90;61.57;99660.38;5093737;28;20170;-67
2021/05/04 05:36:31;;;;;;;13.30;3.87;;;;;;;7.12;61.08;99639.66;5093139;28;20169;-67
2021/05/04 05:38:56;;;;;;;5.43;3.57;;;;;;;7.33;60.61;99628.72;5092919;28;20178;-67
2021/05/04 05:41:22;;;;;;;3.60;3.10;;;;;;;7.21;60.95;99604.63;5074679;28;20175;-67
2021/05/04 05:43:47;;;;;;;4.97;3.60;;;;;;;7.15;60.98;99588.22;5091883;28;20531;-66
2021/05/04 05:46:13;;;;;;;5.13;3.70;;;;;;;7.33;60.92;99586.25;5091391;28;20203;-66
2021/05/04 05:48:38;;;;;;;6.37;4.03;;;;;;;7.43;60.67;99576.78;5093028;28;20202;-66
2021/05/04 05:51:04;;;;;;;4.80;3.37;;;;;;;7.50;60.18;99563.09;5093484;28;20228;-67
2021/05/04 05:53:29;;;;;;;6.83;4.10;;;;;;;7.37;59.94;99551.47;5095220;28;20215;-67
2021/05/04 05:55:55;;;;;;;4.40;3.50;;;;;;;7.32;60.05;99555.34;5096736;28;20174;-73
2021/05/04 05:58:20;;;;;;;6.33;3.63;;;;;;;7.39;60.22;99544.28;5095384;28;20214;-72
2021/05/04 06:00:45;;;;;;;6.93;4.00;;;;;;;7.50;59.70;99523.25;5095354;28;20180;-75
2021/05/04 06:03:10;;;;;;;5.47;4.30;;;;;;;7.58;59.60;99516.63;5095086;28;20277;-74
2021/05/04 06:05:36;;;;;;;5.67;3.70;;;;;;;7.60;58.91;99514.72;5096278;28;20664;-74
2021/05/04 06:08:02;;;;;;;4.83;4.17;;;;;;;7.74;58.28;99504.09;5096408;28;20223;-74
2021/05/04 06:10:27;;;;;;;5.30;3.67;;;;;;;7.77;58.72;99501.22;5096954;28;20292;-73
2021/05/04 06:13:00;;;;;;;6.43;3.50;;;;;;;7.73;58.07;99494.41;5094748;28;20196;-72
2021/05/04 06:15:26;;;;;;;6.47;3.93;;;;;;;7.83;57.70;99480.47;5096294;28;20171;-75
2021/05/04 06:17:51;;;;;;;5.37;3.40;;;;;;;7.67;58.51;99469.09;5096442;28;20227;-73
2021/05/04 06:20:16;;;;;;;5.13;3.93;;;;;;;7.77;58.06;99469.38;5094879;28;20296;-74
2021/05/04 06:22:42;;;;;;;4.90;3.90;;;;;;;7.82;57.20;99428.31;5096593;28;20201;-74
2021/05/04 06:25:08;;;;;;;4.70;3.83;;;;;;;7.84;56.58;99442.34;5098412;28;20203;-74
2021/05/04 06:27:33;;;;;;;8.00;4.00;;;;;;;7.89;56.47;99442.03;5095781;28;20176;-73
2021/05/04 06:29:59;;;;;;;8.77;4.00;;;;;;;8.15;55.77;99421.75;5094950;28;20211;-73
2021/05/04 06:32:25;;;;;;;7.00;4.20;;;;;;;8.29;54.90;99405.75;5094710;28;20588;-74
2021/05/04 06:34:50;;;;;;;8.37;4.37;;;;;;;8.15;55.05;99408.47;5094534;28;20170;-74
2021/05/04 06:37:16;;;;;;;6.57;3.90;;;;;;;8.25;55.62;99383.00;5078409;28;20186;-73
2021/05/04 06:39:41;;;;;;;4.67;4.03;;;;;;;8.29;55.32;99387.16;5095978;28;20226;-73
2021/05/04 06:42:06;;;;;;;5.10;3.70;;;;;;;8.33;55.21;99388.69;5096381;28;20566;-74
2021/05/04 06:44:31;;;;;;;7.60;4.20;;;;;;;8.44;54.64;99374.66;5096543;28;20185;-73
2021/05/04 06:46:57;;;;;;;7.53;4.10;;;;;;;8.45;54.73;99363.94;5095078;28;20230;-73
2021/05/04 06:49:22;;;;;;;5.23;3.57;;;;;;;8.36;54.37;99356.56;5094811;28;20537;-73
2021/05/04 06:51:47;;;;;;;8.93;4.47;;;;;;;8.42;54.35;99387.22;5095517;28;20173;-74
2021/05/04 06:54:13;;;;;;;15.37;3.40;;;;;;;8.44;54.05;99343.63;5095001;28;20166;-73
2021/05/04 06:56:38;;;;;;;5.07;3.80;;;;;;;8.54;54.29;99364.25;5095321;28;20645;-74
2021/05/04 06:59:05;;;;;;;6.63;3.80;;;;;;;8.66;53.77;99368.75;5094097;28;20185;-74
2021/05/04 07:01:30;;;;;;;5.47;3.83;;;;;;;8.84;53.72;99350.69;5096643;28;20656;-74
2021/05/04 07:03:55;;;;;;;7.80;3.83;;;;;;;8.96;53.27;99373.78;5095171;28;20197;-73
2021/05/04 07:06:21;;;;;;;4.97;4.00;;;;;;;8.72;53.84;99386.97;5096736;28;20250;-73
2021/05/04 07:08:46;;;;;;;6.53;3.80;;;;;;;8.91;53.09;99379.41;5077291;28;20200;-74
2021/05/04 07:11:12;;;;;;;4.80;3.67;;;;;;;8.87;52.49;99355.78;5077338;28;20182;-73
2021/05/04 07:13:37;;;;;;;6.43;3.73;;;;;;;8.93;52.80;99385.50;5095233;28;20619;-73
2021/05/04 07:16:02;;;;;;;4.37;3.50;;;;;;;9.22;52.13;99378.13;5094803;28;20176;-74
2021/05/04 07:18:27;;;;;;;5.03;3.63;;;;;;;9.07;52.95;99382.72;5094104;28;20177;-74
2021/05/04 07:20:53;;;;;;;8.83;3.40;;;;;;;9.07;52.59;99388.06;5077758;28;20614;-73
2021/05/04 07:23:18;;;;;;;5.43;3.60;;;;;;;9.34;51.87;99344.50;5094986;28;20693;-73
2021/05/04 07:25:43;;;;;;;7.53;3.70;;;;;;;9.57;50.54;99349.00;5094935;28;20216;-73
2021/05/04 07:28:09;;;;;;;9.13;3.93;;;;;;;9.53;51.52;99326.22;5095532;28;20216;-74
2021/05/04 07:30:39;;;;;;;10.13;3.80;;;;;;;9.46;51.45;99318.78;5094140;28;20178;-74
2021/05/04 07:33:04;;;;;;;6.37;3.80;;;;;;;9.34;52.58;99334.69;5077080;28;20194;-72
2021/05/04 07:35:30;;;;;;;5.83;3.93;;;;;;;9.29;52.24;99336.84;5094785;28;20546;-73
2021/05/04 07:37:55;;;;;;;4.87;3.50;;;;;;;9.56;51.41;99347.28;5098137;28;20170;-73
2021/05/04 07:40:22;;;;;;;5.80;3.93;;;;;;;9.56;51.79;99328.66;5082007;28;20265;-74
2021/05/04 07:42:47;;;;;;;4.80;3.40;;;;;;;9.75;52.17;99354.81;5098168;28;20209;-73
2021/05/04 07:45:12;;;;;;;5.97;3.77;;;;;;;9.88;51.29;99352.09;5095733;28;20198;-75
2021/05/04 07:47:38;;;;;;;5.90;3.30;;;;;;;10.30;50.30;99346.28;5095729;28;20182;-73
2021/05/04 07:50:04;;;;;;;5.10;2.97;;;;;;;10.22;50.51;99337.16;5078265;28;20178;-74
2021/05/04 07:52:30;;;;;;;4.47;3.17;;;;;;;10.35;50.05;99340.59;5081739;28;20213;-74
2021/05/04 07:54:55;;;;;;;4.90;3.60;;;;;;;10.25;50.35;99320.94;5098717;28;20220;-74
2021/05/04 07:57:21;;;;;;;6.87;3.87;;;;;;;10.27;50.12;99313.66;5096356;28;20185;-75
2021/05/04 07:59:47;;;;;;;6.23;4.07;;;;;;;10.38;50.94;99310.16;5076966;28;20697;-74
2021/05/04 08:02:12;;;;;;;4.73;3.50;;;;;;;10.43;50.47;99313.38;5076446;28;20202;-74
2021/05/04 08:04:37;;;;;;;5.97;3.13;;;;;;;10.36;50.92;99306.78;5094920;28;20174;-73
2021/05/04 08:07:07;;;;;;;5.40;3.37;;;;;;;10.53;50.51;99312.53;5094466;28;20206;-73
2021/05/04 08:09:32;;;;;;;4.43;3.20;;;;;;;10.49;51.49;99303.06;5093557;28;20188;-74
2021/05/04 08:11:58;;;;;;;6.17;3.40;;;;;;;10.31;51.80;99310.63;5093013;28;20198;-74
2021/05/04 08:14:24;;;;;;;3.63;2.93;;;;;;;10.02;52.75;99302.13;5093007;28;20178;-73
2021/05/04 08:16:50;;;;;;;6.57;3.10;;;;;;;9.74;54.13;99291.84;5095930;28;20182;-74
2021/05/04 08:19:15;;;;;;;5.30;3.10;;;;;;;9.79;54.81;99296.81;5092632;28;20200;-74
2021/05/04 08:21:42;;;;;;;4.20;3.00;;;;;;;9.72;55.17;99283.09;5092803;28;20178;-75
2021/05/04 08:24:10;;;;;;;5.73;3.17;;;;;;;9.64;55.06;99288.13;5095552;28;20571;-74
2021/05/04 08:26:35;;;;;;;3.73;2.67;;;;;;;9.58;55.40;99329.38;5093592;28;20208;-73
2021/05/04 08:29:00;;;;;;;7.47;3.70;;;;;;;9.62;55.75;99280.25;5094206;28;20558;-75
2021/05/04 08:31:26;;;;;;;3.57;2.80;;;;;;;9.84;56.01;99278.69;5092409;28;20638;-73
2021/05/04 08:33:51;;;;;;;5.73;3.33;;;;;;;9.48;56.91;99263.59;5092129;28;20680;-73
2021/05/04 08:36:17;;;;;;;3.43;2.80;;;;;;;9.50;56.98;99256.34;5092219;28;20176;-73
2021/05/04 08:38:42;;;;;;;3.40;2.70;;;;;;;9.44;58.12;99270.97;5093995;28;20178;-72
2021/05/04 08:41:08;;;;;;;6.43;3.37;;;;;;;9.44;58.28;99265.63;5092412;28;20184;-73
2021/05/04 08:43:34;;;;;;;3.43;2.90;;;;;;;9.22;58.28;99254.81;5092059;28;20558;-73
2021/05/04 08:46:00;;;;;;;4.67;3.10;;;;;;;9.50;57.72;99241.22;5092317;28;20202;-73
2021/05/04 08:48:26;;;;;;;5.33;2.90;;;;;;;9.73;56.72;99246.66;5091973;28;20170;-74
2021/05/04 08:50:53;;;;;;;3.60;2.87;;;;;;;9.47;57.86;99230.78;5092192;28;20661;-73
2021/05/04 08:53:18;;;;;;;5.23;3.00;;;;;;;9.74;57.74;99237.72;5074951;28;20217;-73
2021/05/04 08:55:43;;;;;;;4.07;2.93;;;;;;;9.73;57.72;99228.00;5091962;28;20170;-74
2021/05/04 08:58:08;;;;;;;6.50;2.83;;;;;;;9.86;57.39;99247.44;5092658;28;20268;-73
2021/05/04 09:00:34;;;;;;;5.13;2.63;;;;;;;9.97;57.09;99219.00;5092654;28;20174;-74
2021/05/04 09:03:19;;;;;;;3.53;2.60;;;;;;;10.17;56.49;99222.84;5092146;28;20202;-73
2021/05/04 09:11:28;;;;;;;4.17;2.70;;;;;;;10.44;55.29;99187.88;5091983;28;20231;-73
2021/05/04 09:14:00;;;;;;;5.03;3.10;;;;;;;10.19;55.83;99180.06;5093498;28;20223;-74
2021/05/04 09:16:31;;;;;;;3.50;2.83;;;;;;;10.18;56.39;99192.53;5092923;28;20638;-74
2021/05/04 09:19:10;;;;;;;2.50;2.30;;;;;;;10.39;56.16;99191.84;5093140;28;20242;-73
2021/05/04 09:21:38;;;;;;;3.63;2.87;;;;;;;10.78;55.82;99186.06;5093907;28;20211;-73
2021/05/04 09:24:42;;;;;;;2.53;2.33;;;;;;;11.01;54.39;99140.66;5093369;28;20520;-73
2021/05/04 09:27:09;;;;;;;4.70;2.53;;;;;;;11.03;54.20;99158.25;5058143;28;20263;-73
2021/05/04 09:29:43;;;;;;;2.80;2.50;;;;;;;10.75;54.26;99154.28;5079091;28;20186;-73
2021/05/04 09:32:14;;;;;;;2.70;2.20;;;;;;;10.84;54.49;99196.25;5096313;28;20293;-73
2021/05/04 09:34:44;;;;;;;3.43;2.50;;;;;;;10.80;53.84;99157.44;5097334;28;20185;-74
2021/05/04 09:37:27;;;;;;;4.43;2.27;;;;;;;10.61;54.37;99119.84;5080920;28;20181;-74
2021/05/04 09:39:53;;;;;;;6.43;2.73;;;;;;;10.63;54.11;99128.56;5098351;28;20491;-74
2021/05/04 09:42:19;;;;;;;2.73;2.50;;;;;;;10.72;53.53;99122.50;5097389;28;20653;-74
2021/05/04 09:44:47;;;;;;;4.90;2.27;;;;;;;10.91;53.73;99138.72;5097921;28;20174;-75
2021/05/04 09:47:17;;;;;;;5.60;2.80;;;;;;;10.52;54.19;99145.44;5097560;28;20285;-73
2021/05/04 09:49:43;;;;;;;3.27;2.53;;;;;;;10.73;52.87;99136.69;5096375;28;20163;-75
2021/05/04 09:52:28;;;;;;;5.57;2.77;;;;;;;10.65;53.57;99139.97;5098470;28;20221;-74
2021/05/04 09:55:05;;;;;;;4.27;2.87;;;;;;;10.60;53.70;99145.69;5098426;28;20611;-74
2021/05/04 09:57:49;;;;;;;4.50;2.97;;;;;;;10.93;53.30;99127.94;5098054;28;20166;-73
2021/05/04 10:00:17;;;;;;;3.53;2.80;;;;;;;10.91;53.60;99138.72;5096600;28;20630;-74
2021/05/04 10:02:43;;;;;;;3.93;2.50;;;;;;;11.12;52.21;99125.44;5096391;28;20190;-74
2021/05/04 10:05:10;;;;;;;3.73;2.50;;;;;;;11.33;51.14;99127.34;5096209;28;20183;-75
2021/05/04 10:07:36;;;;;;;4.60;2.40;;;;;;;11.98;50.58;99140.53;5098125;28;20546;-75
2021/05/04 10:10:03;;;;;;;4.67;2.33;;;;;;;11.80;49.92;99088.63;5097847;28;20170;-75
2021/05/04 10:12:29;;;;;;;3.77;2.37;;;;;;;12.10;49.14;99112.72;5096129;28;20262;-74
2021/05/04 10:14:58;;;;;;;2.23;2.00;;;;;;;11.94;49.63;99112.38;5097326;28;20253;-74
2021/05/04 10:17:24;;;;;;;3.67;2.23;;;;;;;11.78;49.87;99122.66;5097886;28;20173;-74
2021/05/04 10:19:50;;;;;;;4.03;2.43;;;;;;;11.97;49.25;99103.25;5097705;28;20560;-75
2021/05/04 10:22:17;;;;;;;2.93;2.50;;;;;;;11.61;50.20;99100.00;5079343;28;20198;-74
2021/05/04 10:24:42;;;;;;;2.93;2.10;;;;;;;12.54;47.78;99108.00;5097296;28;20630;-73
2021/05/04 10:27:08;;;;;;;3.33;2.30;;;;;;;12.93;46.52;99108.97;5097248;28;20209;-74
2021/05/04 10:29:36;;;;;;;3.27;1.83;;;;;;;13.42;46.13;99102.72;5095826;28;20258;-73
2021/05/04 10:32:01;;;;;;;2.70;2.10;;;;;;;13.44;45.28;99122.19;5095249;28;20573;-74
2021/05/04 10:34:31;;;;;;;2.70;2.20;;;;;;;12.83;46.75;99110.78;5095548;28;20174;-74
2021/05/04 10:37:02;;;;;;;2.63;2.03;;;;;;;12.99;46.53;99089.66;5096001;28;20174;-72
2021/05/04 10:39:47;;;;;;;6.03;2.63;;;;;;;13.22;45.96;99109.06;5094902;28;20154;-73
2021/05/04 10:42:17;;;;;;;2.53;2.00;;;;;;;13.06;46.68;99098.03;5094757;28;20569;-74
2021/05/04 10:45:07;;;;;;;2.60;2.03;;;;;;;13.32;46.26;99120.63;5094955;28;20308;-75
2021/05/04 10:47:39;;;;;;;4.67;2.40;;;;;;;13.99;44.78;99103.66;5095182;28;20175;-75
2021/05/04 10:50:08;;;;;;;2.73;2.20;;;;;;;13.88;45.07;99101.13;5096528;28;20170;-75
2021/05/04 10:52:49;;;;;;;2.30;2.07;;;;;;;13.34;46.01;99064.22;5077367;28;20749;-73
2021/05/04 10:55:19;;;;;;;5.43;2.10;;;;;;;13.71;46.00;99085.75;5096141;28;20214;-75
2021/05/04 10:58:09;;;;;;;3.17;1.80;;;;;;;13.44;46.19;99068.59;5097140;28;20643;-77
2021/05/04 11:03:30;;;;;;;7.57;2.30;;;;;;;12.87;47.64;99063.16;5098443;28;20190;-76
2021/05/04 11:05:59;;;;;;;3.20;1.90;;;;;;;13.15;47.01;99062.34;5097501;28;20228;-75
2021/05/04 11:08:25;;;;;;;3.53;1.90;;;;;;;12.39;48.69;99054.03;5095955;28;20311;-75
2021/05/04 11:11:33;;;;;;;2.40;1.97;;;;;;;12.27;48.84;99054.28;5095340;28;20626;-73
2021/05/04 11:14:06;;;;;;;3.13;2.00;;;;;;;12.14;49.93;99060.69;5098484;28;20202;-72
2021/05/04 11:16:35;;;;;;;2.60;1.97;;;;;;;12.06;50.00;99084.56;5102188;28;20171;-72
2021/05/04 11:19:17;;;;;;;4.27;1.80;;;;;;;11.75;51.26;99069.44;5097078;28;20185;-72
2021/05/04 11:21:47;;;;;;;1.60;1.50;;;;;;;11.71;52.04;99070.69;5096331;28;20174;-73
2021/05/04 11:24:15;;;;;;;2.43;1.37;;;;;;;11.82;51.42;99065.28;5094744;28;20257;-73
2021/05/04 11:26:53;;;;;;;6.03;2.10;;;;;;;11.90;50.57;99068.16;5094370;28;20213;-73
2021/05/04 11:29:20;;;;;;;4.30;1.73;;;;;;;11.94;50.76;99066.94;5095185;28;20159;-73
2021/05/04 11:31:51;;;;;;;3.60;1.20;;;;;;;11.80;51.08;99057.41;5094702;28;20178;-71
2021/05/04 11:34:32;;;;;;;1.77;1.10;;;;;;;12.01;51.43;99065.41;5093908;28;20546;-71
2021/05/04 11:36:58;;;;;;;4.37;1.40;;;;;;;12.05;51.71;99076.69;5096203;28;20171;-72
2021/05/04 11:39:23;;;;;;;2.80;1.20;;;;;;;12.50;51.23;99061.09;5096645;28;20200;-72
2021/05/04 11:41:59;;;;;;;2.07;1.27;;;;;;;12.75;49.91;99046.38;5095911;28;20211;-71
2021/05/04 11:44:30;;;;;;;3.63;1.27;;;;;;;13.24;49.15;99061.53;5095545;28;20166;-71